Hit Tracker is now ESPN Home Run Tracker! Hit Tracker founder Greg Rybarczyk is now collaborating with the ESPN Stats & Information Group to continue tracking all MLB home runs, and helping baseball fans know "How Far It Really Went!™" Please credit any information on this site to ESPN Stats & Information Group. For more information and analysis on home runs, please contact founder Greg Rybarczyk. E-Mail ESPN Home Run Tracker
Main Page | Ballparks | Park Overlays | Glossary | Highlight Homers | Feedback | Bio | 3 Types of HR's | AAA Home Run Derby Last Updated: July 31, 2014, 10:27 pm PST
Welcome to the ESPN Home Run Tracker! Check out the ESPN MLB Scoreboard throughout the 2014 season! Contact us at grybar@hittrackeronline.com.
Season:
Ballpark detail for Globe Life Park in Arlington
Ballpark # of Home Runs HR per game Avg.
True
Distance
Avg.
Speed
Off
Bat
Avg.
Std.
Dist.
Globe Life Park in Arlington 93 1.72 398.6 103.8 397.5

Scatter Plot of Home Runs Globe Life Park in Arlington
 Overlay Ballpark:
Without range rings   With range rings

2014 Season Home Runs for Globe Life Park in Arlington
Click headers to sort
Date ^ Video Path Hitter Hitter
Team
Pitcher Pitcher
Team
INN Ballpark Type/
Luck
True
Dist.
Speed
Off
Bat
Elev.
Angle
Horiz.
Angle
Apex Impact Due To: Std.
Dist.
#
Parks
Wind Temp. Alt.
07/30/14 Video View Gardner, Brett NYY Lewis, Colby TEX 1 Globe Life P... ND 416 109.1 28.6 60.5 89 -1 3 2 413 30
07/30/14 Video View Ellsbury, Jacoby NYY Lewis, Colby TEX 3 Globe Life P... JE 413 105.4 23.3 81.9 72 0 0 0 412 26
07/29/14 Video View Gardner, Brett NYY Martinez, Nick TEX 1 Globe Life P... JE 420 107.5 22.1 83.1 69 0 1 0 419 24
07/29/14 Video View Arencibia, J.P. TEX Mccarthy, Brandon NYY 5 Globe Life P... JE/L 367 95.7 33.0 71.2 100 2 2 2 362 13
07/29/14 Video View Arencibia, J.P. TEX Betances, Dellin NYY 7 Globe Life P... PL 409 105.4 26.4 108.3 81 1 1 1 406 30
07/29/14 Video View Teixeira, Mark NYY Cotts, Neal TEX 8 Globe Life P... PL 406 102.4 30.2 105.1 102 0 2 1 403 30
07/28/14 Video View Gardner, Brett NYY Darvish, Yu TEX 3 Globe Life P... PL 395 98.6 33.1 77.9 111 7 3 2 384 16
07/28/14 Video View Gardner, Brett NYY Darvish, Yu TEX 5 Globe Life P... JE 414 102.0 25.9 86.6 84 2 1 1 410 14
07/27/14 Video View Rosales, Adam TEX Kazmir, Scott OAK 2 Globe Life P... PL 389 100.3 30.1 109.0 92 -3 4 1 386 30
07/27/14 Video View Beltre, Adrian TEX Scribner, Evan OAK 8 Globe Life P... ND 415 106.0 27.8 108.7 89 -2 3 1 413 30
07/26/14 Video View Jaso, John OAK Tepesch, Nick TEX 6 Globe Life P... PL 398 103.1 25.7 74.7 75 0 2 1 396 27
07/26/14 Video View Cespedes, Yoenis OAK Tepesch, Nick TEX 6 Globe Life P... JE 383 101.0 26.2 71.7 72 0 2 1 380 22
07/26/14 Video View Donaldson, Josh OAK Adcock, Nate TEX 7 Globe Life P... PL 415 102.6 30.2 82.4 111 -5 4 2 414 28
07/26/14 Video View Reddick, Josh OAK Adcock, Nate TEX 7 Globe Life P... PL 385 103.5 34.0 66.8 121 -15 6 2 390 30
07/11/14 Video View Trout, Mike LAA Tepesch, Nick TEX 4 Globe Life P... PL 443 111.6 21.5 95.9 72 0 0 0 442 30
07/10/14 Video View Trout, Mike LAA Lewis, Colby TEX 3 Globe Life P... JE 418 104.1 23.7 88.5 76 0 1 0 416 22
07/10/14 Video View Beltre, Adrian TEX Santiago, Hector LAA 6 Globe Life P... JE 342 95.9 28.7 56.1 67 0 2 1 339 9
07/09/14 Video View Grossman, Robbie HOU Darvish, Yu TEX 5 Globe Life P... JE 357 103.0 24.6 54.5 57 0 1 0 355 25
07/09/14 Video View Springer, George HOU Frasor, Jason TEX 7 Globe Life P... JE 385 98.7 31.9 76.0 106 -5 3 1 384 24
07/08/14 Video View Martin, Leonys TEX Peacock, Brad HOU 2 Globe Life P... PL 374 99.6 33.4 68.8 110 -11 4 2 377 29
07/08/14 Video View Springer, George HOU Irwin, Phil TEX 3 Globe Life P... PL 442 106.6 26.9 91.5 102 -2 3 1 441 29
07/08/14 Video View Carter, Chris HOU Feliz, Neftali TEX 6 Globe Life P... ND 416 107.3 30.9 115.6 105 -2 4 2 412 30
07/08/14 Video View Carter, Chris HOU Poreda, Aaron TEX 8 Globe Life P... JE 412 101.6 32.0 89.4 121 -3 4 2 410 21
07/07/14 Video View Singleton, Jon HOU Mikolas, Miles TEX 4 Globe Life P... PL 436 107.3 26.7 80.8 98 -3 2 1 435 30
07/07/14 Video View Beltre, Adrian TEX Cosart, Jarred HOU 5 Globe Life P... JE 411 102.4 24.6 92.5 78 0 1 0 409 13
07/07/14 Video View Presley, Alex HOU Baker, Scott TEX 6 Globe Life P... PL 392 106.0 23.7 70.9 64 0 1 0 391 28
06/29/14 Video View Chirinos, Robinson TEX Gibson, Kyle MIN 5 Globe Life P... JE 412 107.5 23.4 103.8 69 0 1 1 410 30
06/27/14 Video View Beltre, Adrian TEX Correia, Kevin MIN 1 Globe Life P... JE 393 108.5 20.5 77.7 55 0 0 0 392 13
06/25/14 Video View Martinez, Victor DET Saunders, Joe TEX 5 Globe Life P... JE/L 421 103.8 26.1 85.2 90 -1 1 1 420 10
06/25/14 Video View Martinez, J.D. DET Tolleson, Shawn TEX 5 Globe Life P... PL 403 104.2 24.4 78.1 73 0 0 0 402 26
06/25/14 Video View Pena, Carlos TEX Sanchez, Anibal DET 6 Globe Life P... PL 346 101.6 38.8 64.0 142 -15 2 3 354 30
06/24/14 Video View Kinsler, Ian DET Lewis, Colby TEX 1 Globe Life P... PL 395 102.8 30.2 115.3 92 4 1 1 390 30
06/24/14 Video View Martinez, J.D. DET Lewis, Colby TEX 7 Globe Life P... PL 418 102.8 26.0 89.6 88 0 0 1 417 23
06/09/14 Video View Chisenhall, Lonnie CLE Martinez, Nick TEX 2 Globe Life P... JE 354 99.6 27.0 56.5 65 0 0 1 353 25
06/09/14 Video View Kottaras, George CLE Martinez, Nick TEX 2 Globe Life P... ND 426 105.9 29.2 74.7 103 2 1 1 420 30
06/09/14 Video View Brantley, Michael CLE Baker, Scott TEX 4 Globe Life P... JE 405 107.7 21.5 79.6 62 0 0 0 405 24
06/09/14 Video View Chisenhall, Lonnie CLE Baker, Scott TEX 4 Globe Life P... PL 411 101.1 33.3 81.0 122 9 2 2 398 14
06/09/14 Video View Choice, Michael TEX House, T.J. CLE 4 Globe Life P... JE/L 357 100.5 40.2 114.9 144 12 3 3 340 5
06/09/14 Video View Chisenhall, Lonnie CLE Baker, Scott TEX 8 Globe Life P... ND 385 105.8 27.0 55.9 72 0 0 1 384 30
06/09/14 Video View Chirinos, Robinson TEX Carrasco, Carlos CLE 8 Globe Life P... ND 424 107.7 26.2 106.8 85 2 0 1 420 30
06/07/14 Video View Gomes, Yan CLE Tepesch, Nick TEX 6 Globe Life P... JE 420 106.4 21.7 89.4 68 0 0 0 420 22
06/07/14 Video View Santana, Carlos CLE Scheppers, Tanner TEX 7 Globe Life P... PL 402 104.8 23.9 77.4 70 0 1 1 401 25
06/06/14 Video View Odor, Rougned TEX Bauer, Trevor CLE 2 Globe Life P... ND 409 107.3 27.7 65.9 86 -4 2 1 410 30
06/06/14 Video View Chisenhall, Lonnie CLE Darvish, Yu TEX 3 Globe Life P... PL 353 97.4 30.0 55.4 74 0 2 1 351 28
06/06/14 Video View Cabrera, Asdrubal CLE Darvish, Yu TEX 4 Globe Life P... PL 371 102.0 27.6 57.0 71 0 2 1 368 30
06/06/14 Video View Choice, Michael TEX Rzepczynski, Marc CLE 7 Globe Life P... JE 384 102.9 23.9 74.6 65 0 1 0 383 17
06/05/14 Video View Choice, Michael TEX Tillman, Chris BAL 2 Globe Life P... JE 407 107.3 22.1 101.0 64 0 0 0 406 27
06/05/14 Video View Markakis, Nick BAL Lewis, Colby TEX 3 Globe Life P... PL 371 99.8 35.0 72.3 124 -12 4 2 377 25
06/05/14 Video View Jones, Adam BAL Scheppers, Tanner TEX 8 Globe Life P... PL 384 102.8 27.0 65.1 74 0 1 1 382 29
06/04/14 Video View Beltre, Adrian TEX Norris, Bud BAL 1 Globe Life P... PL 412 105.4 27.4 72.7 88 -2 2 1 411 30
06/04/14 Video View Markakis, Nick BAL Martinez, Nick TEX 3 Globe Life P... PL 389 100.5 33.2 74.7 117 -4 4 2 388 28
06/04/14 Video View Davis, Chris BAL Martinez, Nick TEX 5 Globe Life P... PL 374 102.0 33.6 73.1 127 -26 4 2 392 30
06/04/14 Video View Beltre, Adrian TEX Norris, Bud BAL 5 Globe Life P... JE 393 101.3 25.6 77.9 75 0 1 1 391 17
06/03/14 Video View Jones, Adam BAL Saunders, Joe TEX 4 Globe Life P... PL 364 102.1 26.8 53.8 65 0 1 1 362 29
06/03/14 Video View Beltre, Adrian TEX Jimenez, Ubaldo BAL 4 Globe Life P... PL 398 102.6 28.2 106.2 90 -6 2 1 400 30
06/03/14 Video View Chirinos, Robinson TEX Matusz, Brian BAL 7 Globe Life P... JE 398 101.6 31.1 101.4 112 -10 2 2 403 30
06/03/14 Video View Cruz, Nelson BAL Tolleson, Shawn TEX 8 Globe Life P... ND 420 109.1 28.8 116.1 94 -2 2 1 419 30
05/21/14 Video View Andrus, Elvis TEX Young, Chris SEA 1 Globe Life P... JE 365 97.7 32.0 115.6 92 -3 2 1 365 28
05/21/14 Video View Cano, Robinson SEA Tepesch, Nick TEX 4 Globe Life P... JE 413 103.9 23.2 87.5 73 0 0 0 412 15
05/21/14 Video View Choo, Shin-Soo TEX Young, Chris SEA 5 Globe Life P... PL 422 104.7 26.9 98.8 93 -3 1 1 421 30
05/20/14 Video View Beltre, Adrian TEX Iwakuma, Hisashi SEA 2 Globe Life P... PL 399 110.7 23.2 117.1 62 0 1 1 397 30
05/18/14 Video View Francisco, Juan TOR Martinez, Nick TEX 4 Globe Life P... ND 418 107.4 26.8 73.4 90 -5 1 1 422 30
05/18/14 Video View Encarnacion, Edwin TOR Poreda, Aaron TEX 6 Globe Life P... PL 418 103.5 28.3 96.1 104 -6 1 1 421 30
05/18/14 Video View Moreland, Mitch TEX Dickey, R.A. TOR 7 Globe Life P... JE 374 110.0 20.6 66.4 49 0 1 0 374 16
05/17/14 Video View Bautista, Jose TOR Ross, Robbie TEX 1 Globe Life P... PL 388 102.8 33.6 113.6 115 -5 2 2 389 30
05/11/14 Video View Choo, Shin-Soo TEX Lackey, John BOS 4 Globe Life P... PL 421 107.2 24.1 101.1 77 0 1 1 420 30
05/11/14 Video View Pedroia, Dustin BOS Ross, Robbie TEX 7 Globe Life P... JE 403 104.6 23.9 101.7 71 0 1 0 402 28
05/10/14 Video View Ortiz, David BOS Perez, Martin TEX 3 Globe Life P... PL 378 98.7 35.8 68.6 119 8 3 2 365 21
05/09/14 Video View Martin, Leonys TEX Capuano, Chris BOS 5 Globe Life P... PL 367 101.2 27.4 59.0 70 0 1 1 366 27
05/08/14 Video View Fielder, Prince TEX Morales, Franklin COL 6 Globe Life P... ND 427 109.8 26.4 69.3 85 2 0 1 425 30
05/07/14 Video View Gonzalez, Carlos COL Lewis, Colby TEX 4 Globe Life P... PL 410 104.8 30.5 78.0 120 -14 2 2 419 29
05/07/14 Video View Beltre, Adrian TEX De La Rosa, Jorge COL 4 Globe Life P... PL 419 103.6 25.0 90.4 84 0 1 1 418 23
04/30/14 Video View Crisp, Coco OAK Tolleson, Shawn TEX 6 Globe Life P... PL 394 99.3 30.1 78.1 98 3 -1 2 391 23
04/20/14 Video View Danks, Jordan CHW Ross, Robbie TEX 3 Globe Life P... PL 408 106.5 26.3 70.5 81 -2 0 1 408 30
04/20/14 Video View Abreu, Jose CHW Ross, Robbie TEX 5 Globe Life P... PL 412 103.1 28.6 76.4 95 3 0 2 408 29
04/20/14 Video View Viciedo, Dayan CHW Tolleson, Shawn TEX 7 Globe Life P... PL 365 99.1 32.4 63.3 98 -8 1 1 370 30
04/19/14 Video View Fielder, Prince TEX Quintana, Jose CHW 4 Globe Life P... PL 393 101.6 30.1 71.1 97 -2 0 1 393 30
04/19/14 Video View Kouzmanoff, Kevin TEX Petricka, Jake CHW 8 Globe Life P... PL 396 101.7 28.7 106.8 90 0 0 1 395 30
04/18/14 Video View Chirinos, Robinson TEX Paulino, Felipe CHW 3 Globe Life P... JE 384 104.5 24.6 111.7 66 0 0 0 383 29
04/18/14 Video View Martin, Leonys TEX Paulino, Felipe CHW 4 Globe Life P... JE 375 107.1 22.7 63.6 56 0 0 0 375 25
04/17/14 Video View Choo, Shin-Soo TEX Ramirez, Erasmo SEA 2 Globe Life P... PL 412 108.5 22.9 76.3 69 0 -1 0 412 29
04/17/14 Video View Cano, Robinson SEA Scheppers, Tanner TEX 3 Globe Life P... JE 388 106.7 22.5 72.1 60 0 -1 0 388 23
04/17/14 Video View Hart, Corey SEA Scheppers, Tanner TEX 3 Globe Life P... PL 377 100.7 33.7 114.2 110 -1 -2 2 378 30
04/15/14 Video View Fielder, Prince TEX Beavan, Blake SEA 2 Globe Life P... PL 446 110.1 22.6 85.6 80 2 -1 1 444 29
04/15/14 Video View Kouzmanoff, Kevin TEX Beavan, Blake SEA 2 Globe Life P... ND 430 107.4 26.9 104.2 93 3 -1 1 427 30
04/14/14 Video View Zunino, Mike SEA Lewis, Colby TEX 5 Globe Life P... PL 431 106.8 23.5 93.1 81 2 -1 1 430 27
04/12/14 Video View Grossman, Robbie HOU Scheppers, Tanner TEX 4 Globe Life P... PL 381 100.3 29.9 71.1 94 -7 2 1 386 29
04/12/14 Video View Choice, Michael TEX Chapman, Kevin HOU 9 Globe Life P... JE 417 104.2 24.6 82.3 78 4 0 0 412 20
04/02/14 Video View Howard, Ryan PHI Ross, Robbie TEX 3 Globe Life P... JE 419 103.6 26.1 84.4 90 -1 0 1 418 24
03/31/14 Video View Rollins, Jimmy PHI Scheppers, Tanner TEX 2 Globe Life P... PL 387 100.9 28.7 72.7 89 -4 0 1 390 29
03/31/14 Video View Rios, Alex TEX Lee, Cliff PHI 3 Globe Life P... JE 414 104.5 23.6 95.4 75 0 0 0 414 23
03/31/14 Video View Byrd, Marlon PHI Figueroa, Pedro TEX 6 Globe Life P... PL 386 104.5 25.8 115.6 70 0 1 1 384 30
03/31/14 Video View Asche, Cody PHI Tolleson, Shawn TEX 8 Globe Life P... PL 377 104.4 26.0 58.0 67 0 1 1 375 30


About HitTracker | Contact Us
© 2006-2009 HitTrackerOnline